Latest Weather Observations for Munglinup West

IDW60801

Issued at 10:23 pm WST Saturday 23 January 2021 (issued every 10 minutes, with the page automatically refreshed every 10 minutes)

About weather observations | Map of weather stations | Latest weather observations for WA | Other Formats
Station Details ID: 012044 Name: MUNGLINUP WEST Lat: -33.55 Lon: 120.70 Height: 220.0 m
Data from the previous 72 hours. | See also: Recent months at Munglinup West
Date/Time
WST
Temp
°C
App
Temp
°C
Dew
Point
°C
Rel
Hum
%
Delta-T
°C
Wind Press
QNH
hPa
Press
MSL
hPa
Rain since
9am
mm
Dir  Spd
km/h
Gust
km/h
Spd
kts
Gust
kts
23/10:00pm 16.7 16.1 15.7 94 0.6 SSW 13 15 7 8 1004.2 1003.3 1.4
23/09:30pm 16.9 16.4 15.9 94 0.6 SSW 13 15 7 8 1004.1 1003.2 1.4
23/09:00pm 17.1 16.2 15.8 92 0.8 SSW 15 19 8 10 1003.9 1003.0 1.4
23/08:30pm 17.3 17.9 15.8 91 0.9 S 7 11 4 6 1004.0 1003.1 1.4
23/08:00pm 17.6 18.4 15.8 89 1.1 SSE 6 7 3 4 1003.7 1002.8 1.4
23/07:30pm 18.3 18.9 15.9 86 1.4 S 7 11 4 6 1003.4 1002.5 1.2
23/07:00pm 18.8 18.4 16.2 85 1.6 SSW 13 19 7 10 1002.8 1001.9 1.2
23/06:30pm 19.7 18.6 16.3 81 2.1 SSW 17 22 9 12 1002.6 1001.7 1.2
23/06:00pm 20.1 18.6 16.3 79 2.3 SSW 19 30 10 16 1002.5 1001.6 1.2
23/05:30pm 20.3 18.8 16.3 78 2.4 S 19 24 10 13 1002.5 1001.6 1.2
23/05:00pm 21.8 20.2 16.5 72 3.3 SSE 20 30 11 16 1002.0 1001.0 1.2
23/04:30pm 21.3 19.1 16.0 72 3.2 SSE 22 32 12 17 1001.0 1000.0 1.2
23/04:00pm 23.0 21.5 17.7 72 3.3 SSW 22 30 12 16 1001.3 1000.3 1.2
23/03:30pm 22.9 20.1 17.4 71 3.4 SSW 28 37 15 20 1000.2 999.3 1.2
23/03:00pm 24.3 20.6 15.0 56 5.6 S 28 35 15 19 1000.8 999.8 1.2
23/02:30pm 24.0 21.0 15.8 60 5.0 S 26 35 14 19 1000.4 999.5 1.2
23/02:00pm 25.6 22.6 17.8 62 5.0 S 30 43 16 23 999.3 998.4 1.2
23/01:30pm 24.5 22.9 19.3 73 3.4 SSE 26 37 14 20 999.4 998.5 1.2
23/01:00pm 28.4 26.8 16.0 47 7.8 SSE 19 32 10 17 999.4 998.5 0.0
23/12:30pm 32.5 29.4 15.5 36 10.7 S 26 35 14 19 998.1 997.1 0.0
23/12:22pm 33.0 29.5 14.6 33 11.4 S 26 37 14 20 997.8 996.8 0.0
23/12:00pm 38.3 36.2 13.5 23 15.5 W 17 37 9 20 998.2 997.2 0.0
23/11:30am 39.5 36.6 12.4 20 16.7 NW 19 33 10 18 998.4 997.5 0.0
23/11:00am 38.1 35.6 14.0 24 15.1 WNW 20 39 11 21 999.0 998.1 0.0
23/10:30am 36.2 35.1 14.2 26 13.7 SW 13 26 7 14 999.6 998.7 0.0
23/10:00am 37.2 34.6 13.9 25 14.6 NNW 20 30 11 16 1000.0 999.1 0.0
23/09:30am 35.8 33.2 13.9 27 13.6 NNW 20 35 11 19 1000.4 999.5 0.0
23/09:00am 34.5 31.4 14.4 30 12.5 NNW 24 37 13 20 1000.8 999.8 0.0
23/08:30am 32.5 30.8 14.6 34 11.1 NW 17 35 9 19 1000.8 999.8 0.0
23/08:00am 27.6 27.9 16.9 52 6.8 NNW 11 19 6 10 1001.0 1000.0 0.0
23/07:30am 23.4 24.6 17.4 69 3.8 NNW 7 11 4 6 1001.3 1000.3 0.0
23/07:00am 19.4 20.8 17.4 88 1.2 NW 6 9 3 5 1001.2 1000.2 0.0
23/06:30am 17.0 18.0 16.4 96 0.4 WNW 6 9 3 5 1001.4 1000.4 0.0
23/06:00am 16.7 17.6 16.1 96 0.4 NW 6 9 3 5 1001.3 1000.3 0.0
23/05:30am 16.7 17.4 16.1 96 0.4 WNW 7 11 4 6 1001.5 1000.5 0.0
23/05:00am 16.7 17.4 16.1 96 0.4 WNW 7 13 4 7 1001.2 1000.2 0.0
23/04:30am 16.8 17.2 16.2 96 0.4 W 9 13 5 7 1000.8 999.8 0.0
23/04:00am 16.8 17.2 16.2 96 0.4 WNW 9 15 5 8 1000.7 999.7 0.0
23/03:30am 16.9 17.7 16.3 96 0.4 WNW 7 13 4 7 1000.7 999.7 0.0
23/03:00am 16.8 17.5 16.2 96 0.4 W 7 9 4 5 1000.4 999.5 0.0
23/02:30am 16.9 17.7 16.3 96 0.4 WSW 7 9 4 5 1000.7 999.7 0.0
23/02:00am 17.0 17.4 16.2 95 0.5 WSW 9 11 5 6 1001.3 1000.3 0.0
23/01:30am 17.1 17.1 16.3 95 0.5 SW 11 15 6 8 1001.7 1000.7 0.0
23/01:00am 17.1 17.0 16.1 94 0.6 SW 11 15 6 8 1002.0 1001.0 0.0
23/12:30am 17.2 17.5 16.1 93 0.7 WSW 9 11 5 6 1002.2 1001.2 0.0
23/12:00am 17.4 18.1 16.1 92 0.8 SW 7 11 4 6 1002.4 1001.5 0.0
 
Date/Time
WST
Temp
°C
App
Temp
°C
Dew
Point
°C
Rel
Hum
%
Delta-T
°C
Wind Press
QNH
hPa
Press
MSL
hPa
Rain since
9am
mm
Dir  Spd
km/h
Gust
km/h
Spd
kts
Gust
kts
22/11:30pm 17.6 19.3 16.1 91 0.9 W 2 7 1 4 1003.1 1002.2 0.0
22/11:00pm 17.3 18.0 16.2 93 0.7 NW 7 19 4 10 1004.3 1003.4 0.0
22/10:30pm 16.6 17.2 15.3 92 0.8 WSW 6 6 3 3 1002.8 1001.9 0.0
22/10:00pm 16.7 17.7 15.4 92 0.8 S 4 6 2 3 1003.2 1002.3 0.0
22/09:30pm 16.8 17.8 15.3 91 0.9 SSE 4 7 2 4 1003.3 1002.4 0.0
22/09:00pm 17.2 17.3 15.5 90 1.0 SSE 9 13 5 7 1003.4 1002.5 0.0
22/08:30pm 17.5 16.8 15.5 88 1.2 SSE 13 20 7 11 1003.0 1002.1 0.0
22/08:00pm 18.0 16.5 15.4 85 1.5 SSE 17 22 9 12 1003.0 1002.1 0.0
22/07:30pm 18.9 17.4 15.2 79 2.2 SSE 17 24 9 13 1003.1 1002.2 0.0
22/07:00pm 20.2 18.1 14.6 70 3.3 SSE 19 28 10 15 1003.0 1002.1 0.0
22/06:30pm 21.7 18.4 13.9 61 4.6 SSE 24 32 13 17 1003.1 1002.2 0.0
22/06:00pm 23.1 19.5 13.0 53 5.9 SSE 24 32 13 17 1003.2 1002.3 0.0
22/05:30pm 24.8 21.4 13.7 50 6.6 SE 24 35 13 19 1003.2 1002.3 0.0
22/05:00pm 25.8 22.8 14.9 51 6.6 SE 24 32 13 17 1003.2 1002.3 0.0
22/04:30pm 26.8 23.8 14.9 48 7.2 SE 24 35 13 19 1003.5 1002.6 0.0
22/04:00pm 27.6 24.3 14.9 45 7.8 SSE 26 33 14 18 1003.7 1002.8 0.0
22/03:30pm 27.9 24.3 14.2 43 8.3 SE 26 33 14 18 1004.1 1003.2 0.0
22/03:00pm 28.8 25.9 15.0 43 8.5 SSE 24 35 13 19 1004.5 1003.6 0.0
22/02:30pm 29.3 26.6 14.7 41 8.9 SE 22 30 12 16 1004.9 1004.0 0.0
22/02:00pm 29.6 27.1 14.2 39 9.4 SE 20 30 11 16 1005.3 1004.4 0.0
22/01:30pm 30.5 28.5 15.0 39 9.6 SSE 19 28 10 15 1005.6 1004.6 0.0
22/01:00pm 30.3 28.6 13.6 36 10.1 SE 15 30 8 16 1006.2 1005.2 0.0
22/12:30pm 29.1 27.7 13.3 37 9.5 SE 13 24 7 13 1006.7 1005.8 0.0
22/12:00pm 29.9 27.9 14.0 37 9.7 SE 17 26 9 14 1007.2 1006.3 0.0
22/11:30am 28.3 25.8 13.4 40 8.9 SE 19 30 10 16 1007.7 1006.8 0.0
22/11:00am 27.4 25.5 13.0 41 8.5 SE 15 30 8 16 1008.3 1007.4 0.0
22/10:30am 26.9 25.3 12.9 42 8.3 ESE 13 20 7 11 1008.7 1007.8 0.0
22/10:00am 26.0 23.9 13.5 46 7.4 ESE 17 26 9 14 1009.3 1008.4 0.0
22/09:30am 24.8 22.7 13.7 50 6.6 ESE 17 24 9 13 1009.8 1008.9 0.0
22/09:00am 23.2 21.4 14.5 58 5.2 SE 17 24 9 13 1010.2 1009.2 0.0
22/08:30am 22.0 20.3 14.6 63 4.4 SE 17 26 9 14 1010.4 1009.5 0.0
22/08:00am 20.8 19.1 14.7 68 3.6 ESE 17 26 9 14 1010.9 1010.0 0.0
22/07:30am 19.6 18.8 15.0 75 2.7 ESE 13 20 7 11 1011.3 1010.4 0.0
22/07:00am 17.9 16.2 14.8 82 1.8 SE 17 24 9 13 1011.1 1010.2 0.0
22/06:30am 17.1 15.8 14.7 86 1.4 SE 15 20 8 11 1011.0 1010.1 0.0
22/06:00am 16.7 15.3 14.5 87 1.3 ESE 15 19 8 10 1011.4 1010.5 0.0
22/05:30am 16.4 14.6 14.4 88 1.2 SE 17 22 9 12 1011.4 1010.5 0.0
22/05:00am 16.5 15.2 14.7 89 1.0 SE 15 20 8 11 1011.3 1010.4 0.0
22/04:30am 16.4 15.1 14.9 91 0.9 SE 15 20 8 11 1011.2 1010.3 0.0
22/04:00am 16.3 14.6 14.8 91 0.9 SE 17 24 9 13 1011.1 1010.2 0.0
22/03:30am 16.3 14.7 15.0 92 0.8 SE 17 22 9 12 1011.3 1010.4 0.0
22/03:00am 16.2 15.4 15.2 94 0.6 SE 13 20 7 11 1011.5 1010.6 0.0
22/02:30am 16.3 15.3 15.5 95 0.5 SSE 15 22 8 12 1011.6 1010.7 0.0
22/02:00am 16.1 15.4 15.3 95 0.5 SSE 13 20 7 11 1012.0 1011.1 0.0
22/01:30am 16.3 16.5 15.7 96 0.4 SSE 9 15 5 8 1012.3 1011.4 0.0
22/01:00am 16.3 16.1 15.7 96 0.4 SSE 11 17 6 9 1012.4 1011.5 0.0
22/12:30am 16.2 15.6 15.6 96 0.4 SE 13 19 7 10 1012.7 1011.8 0.0
22/12:00am 16.4 15.4 15.6 95 0.5 SSE 15 20 8 11 1012.9 1012.0 0.0
 
Date/Time
WST
Temp
°C
App
Temp
°C
Dew
Point
°C
Rel
Hum
%
Delta-T
°C
Wind Press
QNH
hPa
Press
MSL
hPa
Rain since
9am
mm
Dir  Spd
km/h
Gust
km/h
Spd
kts
Gust
kts
21/11:30pm 16.4 15.4 15.6 95 0.5 SSE 15 19 8 10 1013.1 1012.2 0.0
21/11:00pm 16.5 15.8 15.5 94 0.6 SE 13 20 7 11 1013.5 1012.6 0.0
21/10:30pm 16.6 15.6 15.5 93 0.6 SE 15 20 8 11 1013.7 1012.8 0.0
21/10:00pm 16.8 15.3 15.3 91 0.9 SE 17 22 9 12 1014.0 1013.1 0.0
21/09:30pm 16.8 15.7 15.2 90 0.9 SE 15 20 8 11 1014.0 1013.1 0.0
21/09:00pm 17.0 15.0 15.0 88 1.2 SSE 19 28 10 15 1013.9 1013.0 0.0
21/08:30pm 17.2 15.0 15.0 87 1.3 SSE 20 30 11 16 1013.8 1012.9 0.0
21/08:00pm 17.1 14.2 15.1 88 1.2 SSE 24 33 13 18 1013.5 1012.6 0.0
21/07:30pm 17.6 15.4 15.0 85 1.5 SSE 20 30 11 16 1013.2 1012.3 0.0
21/07:00pm 17.8 15.3 15.1 84 1.6 SSE 22 32 12 17 1012.9 1012.0 0.0
21/06:30pm 18.0 15.0 14.7 81 1.9 SSE 24 33 13 18 1012.7 1011.8 0.0
21/06:00pm 18.6 16.1 15.1 80 2.1 S 22 35 12 19 1012.4 1011.5 0.0
21/05:30pm 19.0 15.4 15.3 79 2.2 S 28 39 15 21 1012.1 1011.2 0.0
21/05:00pm 20.5 16.6 15.5 73 3.0 S 30 43 16 23 1011.8 1010.9 0.0
21/04:30pm 21.7 19.0 15.5 68 3.7 S 24 37 13 20 1011.8 1010.9 0.0
21/04:00pm 22.6 20.3 15.7 65 4.2 S 22 32 12 17 1011.9 1011.0 0.0
21/03:30pm 21.8 19.3 15.2 66 4.0 S 22 35 12 19 1012.3 1011.4 0.0
21/03:00pm 22.2 19.2 14.8 63 4.4 S 24 37 13 20 1012.5 1011.6 0.0
21/02:30pm 23.5 19.9 15.3 60 5.0 S 28 37 15 20 1012.5 1011.6 0.0
21/02:00pm 24.8 22.4 15.4 56 5.7 S 22 35 12 19 1012.5 1011.6 0.0
21/01:30pm 24.2 21.2 14.9 56 5.6 S 24 43 13 23 1012.5 1011.6 0.0
21/01:00pm 24.9 22.2 15.5 56 5.7 S 24 33 13 18 1012.6 1011.7 0.0
21/12:30pm 25.3 23.1 15.9 56 5.8 SSE 22 35 12 19 1012.6 1011.7 0.0
21/12:00pm 24.7 22.4 15.6 57 5.6 SSE 22 32 12 17 1013.0 1012.1 0.0
21/11:30am 24.0 21.5 15.2 58 5.3 SSE 22 30 12 16 1013.1 1012.2 0.0
21/11:00am 24.0 22.3 15.8 60 5.0 SSE 19 28 10 15 1013.5 1012.6 0.0
21/10:30am 23.1 21.1 15.4 62 4.7 S 20 33 11 18 1013.7 1012.8 0.0
21/10:00am 23.3 21.2 16.1 64 4.4 SSE 22 30 12 16 1013.6 1012.7 0.0
21/09:30am 22.5 20.7 16.1 67 3.9 SSE 20 32 11 17 1013.7 1012.8 0.0
21/09:00am 20.6 19.4 17.0 80 2.2 S 19 28 10 15 1013.9 1013.0 0.4
21/08:30am 19.1 16.6 16.1 83 1.8 S 24 35 13 19 1013.9 1013.0 0.4
21/08:00am 18.9 16.8 16.3 85 1.6 S 22 32 12 17 1014.1 1013.2 0.4
21/07:30am 18.6 16.3 16.6 88 1.2 S 24 32 13 17 1014.1 1013.2 0.4
21/07:00am 17.9 16.3 16.6 92 0.8 S 20 30 11 16 1014.0 1013.1 0.4
21/06:30am 17.3 16.3 16.5 95 0.5 SSE 17 26 9 14 1013.8 1012.9 0.4
21/06:00am 17.3 16.8 16.8 97 0.3 S 15 24 8 13 1013.8 1012.9 0.4
21/05:30am 17.0 15.6 16.5 97 0.3 S 19 28 10 15 1013.5 1012.6 0.4
21/05:00am 17.1 16.2 16.8 98 0.2 S 17 24 9 13 1013.4 1012.5 0.4
21/04:30am 17.0 16.0 16.7 98 0.2 S 17 24 9 13 1013.2 1012.3 0.4
21/04:00am 16.9 15.9 16.6 98 0.2 SSW 17 20 9 11 1012.7 1011.8 0.4
21/03:30am 16.6 16.2 16.3 98 0.2 SSW 13 17 7 9 1012.8 1011.9 0.4
21/03:00am 16.3 16.5 15.8 97 0.3 SSW 9 13 5 7 1012.7 1011.8 0.4
21/02:30am 16.4 15.5 15.9 97 0.3 SSW 15 20 8 11 1012.5 1011.6 0.4
21/02:00am 16.3 16.1 15.8 97 0.3 SW 11 15 6 8 1012.3 1011.4 0.4
21/01:30am 16.0 15.7 15.4 96 0.4 SSW 11 13 6 7 1012.3 1011.4 0.4
21/01:00am 15.5 15.9 14.7 95 0.5 SSW 6 9 3 5 1012.5 1011.6 0.4
21/12:30am 15.8 16.6 14.7 93 0.6 SW 4 6 2 3 1013.1 1012.2 0.4
21/12:00am 16.7 16.9 15.7 94 0.6 S 9 13 5 7 1013.1 1012.2 0.4
 
Date/Time
WST
Temp
°C
App
Temp
°C
Dew
Point
°C
Rel
Hum
%
Delta-T
°C
Wind Press
QNH
hPa
Press
MSL
hPa
Rain since
9am
mm
Dir  Spd
km/h
Gust
km/h
Spd
kts
Gust
kts
20/11:30pm 16.7 16.9 15.7 94 0.6 SSW 9 13 5 7 1013.2 1012.3 0.4
20/11:00pm 16.4 16.6 14.8 90 0.9 SSW 7 11 4 6 1013.5 1012.6 0.4
20/10:30pm 17.1 17.4 15.1 88 1.2 S 7 9 4 5 1013.7 1012.8 0.4

Other formats

Comma delimited format used in spreadsheet applications
http://www.bom.gov.au/fwo/IDW60801/IDW60801.95644.axf

JavaScript Object Notation format (JSON) in row-major order
http://www.bom.gov.au/fwo/IDW60801/IDW60801.95644.json

Data quality

Most of these data are generated automatically and are frequently updated. Quality checks on data are not normally performed. It is possible for incorrect values to appear. Refer to information at About Latest Weather Observations and please check the disclaimer before using these data.